sensor_id;sensor_type;location;lat;lon;timestamp;temperature;humidity
46037;DHT22;31769;49.304;8.428;2023-07-08T00:01:40;23.30;59.70
46037;DHT22;31769;49.304;8.428;2023-07-08T00:04:42;23.30;59.80
46037;DHT22;31769;49.304;8.428;2023-07-08T00:07:43;23.30;59.80
46037;DHT22;31769;49.304;8.428;2023-07-08T00:10:44;23.20;59.90
46037;DHT22;31769;49.304;8.428;2023-07-08T00:13:45;23.20;60.00
46037;DHT22;31769;49.304;8.428;2023-07-08T00:16:46;23.10;60.10
46037;DHT22;31769;49.304;8.428;2023-07-08T00:19:47;23.10;60.10
46037;DHT22;31769;49.304;8.428;2023-07-08T00:22:48;23.10;60.50
46037;DHT22;31769;49.304;8.428;2023-07-08T00:25:50;23.00;60.50
46037;DHT22;31769;49.304;8.428;2023-07-08T00:28:52;23.00;60.60
46037;DHT22;31769;49.304;8.428;2023-07-08T00:31:54;23.00;60.90
46037;DHT22;31769;49.304;8.428;2023-07-08T00:34:55;22.90;60.70
46037;DHT22;31769;49.304;8.428;2023-07-08T00:37:56;22.90;60.80
46037;DHT22;31769;49.304;8.428;2023-07-08T00:44:03;22.80;60.80
46037;DHT22;31769;49.304;8.428;2023-07-08T00:47:09;22.80;60.80
46037;DHT22;31769;49.304;8.428;2023-07-08T00:50:11;22.80;60.90
46037;DHT22;31769;49.304;8.428;2023-07-08T00:53:32;22.80;61.20
46037;DHT22;31769;49.304;8.428;2023-07-08T00:56:36;22.70;61.30
46037;DHT22;31769;49.304;8.428;2023-07-08T00:59:42;22.70;61.30
46037;DHT22;31769;49.304;8.428;2023-07-08T01:02:55;22.70;61.60
46037;DHT22;31769;49.304;8.428;2023-07-08T01:05:58;22.70;61.70
46037;DHT22;31769;49.304;8.428;2023-07-08T01:09:03;22.60;61.70
46037;DHT22;31769;49.304;8.428;2023-07-08T01:12:08;22.60;61.80
46037;DHT22;31769;49.304;8.428;2023-07-08T01:15:11;22.60;61.70
46037;DHT22;31769;49.304;8.428;2023-07-08T01:18:14;22.50;61.60
46037;DHT22;31769;49.304;8.428;2023-07-08T01:21:35;22.50;61.60
46037;DHT22;31769;49.304;8.428;2023-07-08T01:24:38;22.40;62.00
46037;DHT22;31769;49.304;8.428;2023-07-08T01:27:43;22.40;62.50
46037;DHT22;31769;49.304;8.428;2023-07-08T01:30:45;22.40;62.80
46037;DHT22;31769;49.304;8.428;2023-07-08T01:33:46;22.30;62.90
46037;DHT22;31769;49.304;8.428;2023-07-08T01:36:50;22.30;62.90
46037;DHT22;31769;49.304;8.428;2023-07-08T01:39:52;22.30;63.10
46037;DHT22;31769;49.304;8.428;2023-07-08T01:42:53;22.30;63.80
46037;DHT22;31769;49.304;8.428;2023-07-08T01:45:54;22.30;63.70
46037;DHT22;31769;49.304;8.428;2023-07-08T01:49:00;22.20;63.90
46037;DHT22;31769;49.304;8.428;2023-07-08T01:52:02;22.20;64.10
46037;DHT22;31769;49.304;8.428;2023-07-08T01:55:03;22.10;64.20
46037;DHT22;31769;49.304;8.428;2023-07-08T01:58:04;22.10;64.50
46037;DHT22;31769;49.304;8.428;2023-07-08T02:01:05;22.10;64.80
46037;DHT22;31769;49.304;8.428;2023-07-08T02:04:06;22.00;65.20
46037;DHT22;31769;49.304;8.428;2023-07-08T02:07:07;22.00;65.30
46037;DHT22;31769;49.304;8.428;2023-07-08T02:10:08;21.90;65.60
46037;DHT22;31769;49.304;8.428;2023-07-08T02:13:09;21.90;65.80
46037;DHT22;31769;49.304;8.428;2023-07-08T02:16:09;21.90;65.70
46037;DHT22;31769;49.304;8.428;2023-07-08T02:19:10;21.80;65.80
46037;DHT22;31769;49.304;8.428;2023-07-08T02:22:12;21.80;65.60
46037;DHT22;31769;49.304;8.428;2023-07-08T02:25:12;21.80;65.70
46037;DHT22;31769;49.304;8.428;2023-07-08T02:32:36;21.70;65.60
46037;DHT22;31769;49.304;8.428;2023-07-08T02:35:40;21.70;65.60
46037;DHT22;31769;49.304;8.428;2023-07-08T02:38:41;21.60;66.40
46037;DHT22;31769;49.304;8.428;2023-07-08T02:41:42;21.60;66.50
46037;DHT22;31769;49.304;8.428;2023-07-08T02:44:43;21.60;66.30
46037;DHT22;31769;49.304;8.428;2023-07-08T02:47:44;21.50;65.90
46037;DHT22;31769;49.304;8.428;2023-07-08T02:50:45;21.60;66.00
46037;DHT22;31769;49.304;8.428;2023-07-08T02:53:46;21.60;65.80
46037;DHT22;31769;49.304;8.428;2023-07-08T02:56:47;21.50;66.00
46037;DHT22;31769;49.304;8.428;2023-07-08T02:59:48;21.50;65.70
46037;DHT22;31769;49.304;8.428;2023-07-08T03:02:48;21.50;66.00
46037;DHT22;31769;49.304;8.428;2023-07-08T03:05:59;21.50;66.60
46037;DHT22;31769;49.304;8.428;2023-07-08T03:09:00;21.50;66.40
46037;DHT22;31769;49.304;8.428;2023-07-08T03:12:01;21.50;66.70
46037;DHT22;31769;49.304;8.428;2023-07-08T03:15:02;21.50;66.60
46037;DHT22;31769;49.304;8.428;2023-07-08T03:18:03;21.40;66.60
46037;DHT22;31769;49.304;8.428;2023-07-08T03:21:04;21.40;66.80
46037;DHT22;31769;49.304;8.428;2023-07-08T03:24:05;21.40;66.60
46037;DHT22;31769;49.304;8.428;2023-07-08T03:27:07;21.30;66.70
46037;DHT22;31769;49.304;8.428;2023-07-08T03:30:10;21.40;66.80
46037;DHT22;31769;49.304;8.428;2023-07-08T03:33:11;21.40;67.50
46037;DHT22;31769;49.304;8.428;2023-07-08T03:36:17;21.30;70.70
46037;DHT22;31769;49.304;8.428;2023-07-08T03:39:24;21.30;68.90
46037;DHT22;31769;49.304;8.428;2023-07-08T03:42:26;21.30;68.40
46037;DHT22;31769;49.304;8.428;2023-07-08T03:45:27;21.20;68.20
46037;DHT22;31769;49.304;8.428;2023-07-08T03:48:28;21.20;68.10
46037;DHT22;31769;49.304;8.428;2023-07-08T03:51:33;21.20;68.20
46037;DHT22;31769;49.304;8.428;2023-07-08T03:54:34;21.30;68.30
46037;DHT22;31769;49.304;8.428;2023-07-08T03:57:35;21.30;68.20
46037;DHT22;31769;49.304;8.428;2023-07-08T04:00:36;21.30;67.90
46037;DHT22;31769;49.304;8.428;2023-07-08T04:03:37;21.50;67.70
46037;DHT22;31769;49.304;8.428;2023-07-08T04:06:39;21.50;67.10
46037;DHT22;31769;49.304;8.428;2023-07-08T04:09:41;21.70;66.60
46037;DHT22;31769;49.304;8.428;2023-07-08T04:12:44;21.70;66.40
46037;DHT22;31769;49.304;8.428;2023-07-08T04:15:51;21.80;66.60
46037;DHT22;31769;49.304;8.428;2023-07-08T04:18:55;21.80;66.50
46037;DHT22;31769;49.304;8.428;2023-07-08T04:21:56;21.90;66.20
46037;DHT22;31769;49.304;8.428;2023-07-08T04:24:57;22.00;65.40
46037;DHT22;31769;49.304;8.428;2023-07-08T04:27:58;22.20;65.20
46037;DHT22;31769;49.304;8.428;2023-07-08T04:30:58;22.20;64.80
46037;DHT22;31769;49.304;8.428;2023-07-08T04:33:59;22.40;64.30
46037;DHT22;31769;49.304;8.428;2023-07-08T04:37:00;22.40;63.90
46037;DHT22;31769;49.304;8.428;2023-07-08T04:40:01;22.40;63.90
46037;DHT22;31769;49.304;8.428;2023-07-08T04:43:02;22.60;63.50
46037;DHT22;31769;49.304;8.428;2023-07-08T04:46:08;22.70;63.90
46037;DHT22;31769;49.304;8.428;2023-07-08T04:49:15;22.80;63.50
46037;DHT22;31769;49.304;8.428;2023-07-08T04:52:16;23.00;62.70
46037;DHT22;31769;49.304;8.428;2023-07-08T04:55:17;23.20;62.50
46037;DHT22;31769;49.304;8.428;2023-07-08T04:58:18;24.00;62.80
46037;DHT22;31769;49.304;8.428;2023-07-08T05:01:18;23.70;62.50
46037;DHT22;31769;49.304;8.428;2023-07-08T05:04:21;23.70;62.70
46037;DHT22;31769;49.304;8.428;2023-07-08T05:07:22;23.90;62.30
46037;DHT22;31769;49.304;8.428;2023-07-08T05:10:22;24.10;62.20
46037;DHT22;31769;49.304;8.428;2023-07-08T05:13:23;24.20;62.00
46037;DHT22;31769;49.304;8.428;2023-07-08T05:16:24;24.30;61.50
46037;DHT22;31769;49.304;8.428;2023-07-08T05:19:24;24.30;61.60
46037;DHT22;31769;49.304;8.428;2023-07-08T05:22:26;24.20;61.60
46037;DHT22;31769;49.304;8.428;2023-07-08T05:25:27;23.90;60.50
46037;DHT22;31769;49.304;8.428;2023-07-08T05:28:28;23.60;61.70
46037;DHT22;31769;49.304;8.428;2023-07-08T05:31:28;23.00;65.20
46037;DHT22;31769;49.304;8.428;2023-07-08T05:34:29;22.90;66.90
46037;DHT22;31769;49.304;8.428;2023-07-08T05:37:30;22.60;67.20
46037;DHT22;31769;49.304;8.428;2023-07-08T05:40:30;22.60;66.40
46037;DHT22;31769;49.304;8.428;2023-07-08T05:43:31;22.40;68.50
46037;DHT22;31769;49.304;8.428;2023-07-08T05:46:32;22.30;70.10
46037;DHT22;31769;49.304;8.428;2023-07-08T05:49:32;22.20;71.90
46037;DHT22;31769;49.304;8.428;2023-07-08T05:52:33;22.10;72.40
46037;DHT22;31769;49.304;8.428;2023-07-08T05:55:34;21.80;75.90
46037;DHT22;31769;49.304;8.428;2023-07-08T05:58:35;21.40;80.00
46037;DHT22;31769;49.304;8.428;2023-07-08T06:01:35;21.30;81.80
46037;DHT22;31769;49.304;8.428;2023-07-08T06:04:36;21.30;84.20
46037;DHT22;31769;49.304;8.428;2023-07-08T06:07:37;21.40;87.60
46037;DHT22;31769;49.304;8.428;2023-07-08T06:10:42;21.60;91.30
46037;DHT22;31769;49.304;8.428;2023-07-08T06:13:43;21.70;95.60
46037;DHT22;31769;49.304;8.428;2023-07-08T06:16:44;21.90;98.40
46037;DHT22;31769;49.304;8.428;2023-07-08T06:19:45;21.90;99.50
46037;DHT22;31769;49.304;8.428;2023-07-08T06:22:45;22.00;99.70
46037;DHT22;31769;49.304;8.428;2023-07-08T06:25:46;22.20;99.90
46037;DHT22;31769;49.304;8.428;2023-07-08T06:28:47;22.20;99.90
46037;DHT22;31769;49.304;8.428;2023-07-08T06:31:48;22.30;99.90
46037;DHT22;31769;49.304;8.428;2023-07-08T06:34:48;22.30;99.90
46037;DHT22;31769;49.304;8.428;2023-07-08T06:37:49;22.40;99.90
46037;DHT22;31769;49.304;8.428;2023-07-08T06:40:50;22.40;99.90
46037;DHT22;31769;49.304;8.428;2023-07-08T06:43:50;22.30;95.80
46037;DHT22;31769;49.304;8.428;2023-07-08T06:46:51;22.10;96.00
46037;DHT22;31769;49.304;8.428;2023-07-08T06:49:52;22.20;96.60
46037;DHT22;31769;49.304;8.428;2023-07-08T06:52:53;22.20;97.70
46037;DHT22;31769;49.304;8.428;2023-07-08T06:55:54;22.20;99.70
46037;DHT22;31769;49.304;8.428;2023-07-08T06:58:54;22.20;99.90
46037;DHT22;31769;49.304;8.428;2023-07-08T07:01:55;22.00;99.90
46037;DHT22;31769;49.304;8.428;2023-07-08T07:04:56;22.20;99.90
46037;DHT22;31769;49.304;8.428;2023-07-08T07:07:56;22.70;99.90
46037;DHT22;31769;49.304;8.428;2023-07-08T07:10:57;23.40;99.90
46037;DHT22;31769;49.304;8.428;2023-07-08T07:13:58;23.90;99.90
46037;DHT22;31769;49.304;8.428;2023-07-08T07:16:59;24.30;99.60
46037;DHT22;31769;49.304;8.428;2023-07-08T07:19:59;24.60;98.90
46037;DHT22;31769;49.304;8.428;2023-07-08T07:23:00;24.80;98.10
46037;DHT22;31769;49.304;8.428;2023-07-08T07:26:01;25.10;98.40
46037;DHT22;31769;49.304;8.428;2023-07-08T07:29:03;25.30;98.60
46037;DHT22;31769;49.304;8.428;2023-07-08T07:32:04;25.50;97.60
46037;DHT22;31769;49.304;8.428;2023-07-08T07:35:06;25.50;97.50
46037;DHT22;31769;49.304;8.428;2023-07-08T07:38:07;25.60;97.40
46037;DHT22;31769;49.304;8.428;2023-07-08T07:41:07;25.40;97.30
46037;DHT22;31769;49.304;8.428;2023-07-08T07:44:11;25.40;97.60
46037;DHT22;31769;49.304;8.428;2023-07-08T07:47:11;25.40;98.40
46037;DHT22;31769;49.304;8.428;2023-07-08T07:50:12;25.40;98.20
46037;DHT22;31769;49.304;8.428;2023-07-08T07:53:13;25.50;98.10
46037;DHT22;31769;49.304;8.428;2023-07-08T07:56:14;25.40;98.00
46037;DHT22;31769;49.304;8.428;2023-07-08T07:59:14;25.60;98.20
46037;DHT22;31769;49.304;8.428;2023-07-08T08:02:16;25.70;97.40
46037;DHT22;31769;49.304;8.428;2023-07-08T08:05:17;25.70;97.40
46037;DHT22;31769;49.304;8.428;2023-07-08T08:08:19;25.50;97.30
46037;DHT22;31769;49.304;8.428;2023-07-08T08:11:20;25.40;96.60
46037;DHT22;31769;49.304;8.428;2023-07-08T08:14:22;25.20;97.30
46037;DHT22;31769;49.304;8.428;2023-07-08T08:17:23;25.20;98.00
46037;DHT22;31769;49.304;8.428;2023-07-08T08:20:25;25.00;98.40
46037;DHT22;31769;49.304;8.428;2023-07-08T08:23:26;24.90;99.40
46037;DHT22;31769;49.304;8.428;2023-07-08T08:26:26;24.80;99.10
46037;DHT22;31769;49.304;8.428;2023-07-08T08:29:27;24.60;99.90
46037;DHT22;31769;49.304;8.428;2023-07-08T08:32:28;24.70;99.90
46037;DHT22;31769;49.304;8.428;2023-07-08T08:35:29;24.90;99.90
46037;DHT22;31769;49.304;8.428;2023-07-08T08:38:29;24.80;99.90
46037;DHT22;31769;49.304;8.428;2023-07-08T08:41:34;24.90;99.90
46037;DHT22;31769;49.304;8.428;2023-07-08T08:44:36;25.10;99.90
46037;DHT22;31769;49.304;8.428;2023-07-08T08:47:42;25.20;99.90
46037;DHT22;31769;49.304;8.428;2023-07-08T08:50:52;25.30;99.70
46037;DHT22;31769;49.304;8.428;2023-07-08T08:53:56;25.40;99.90
46037;DHT22;31769;49.304;8.428;2023-07-08T09:00:24;25.50;99.30
46037;DHT22;31769;49.304;8.428;2023-07-08T09:03:42;25.80;99.10
46037;DHT22;31769;49.304;8.428;2023-07-08T09:06:43;26.10;99.10
46037;DHT22;31769;49.304;8.428;2023-07-08T09:10:01;26.10;98.70
46037;DHT22;31769;49.304;8.428;2023-07-08T09:13:05;26.20;99.00
46037;DHT22;31769;49.304;8.428;2023-07-08T09:16:19;26.30;98.40
46037;DHT22;31769;49.304;8.428;2023-07-08T09:19:33;26.30;98.40
46037;DHT22;31769;49.304;8.428;2023-07-08T09:22:46;26.50;97.90
46037;DHT22;31769;49.304;8.428;2023-07-08T09:26:11;26.60;98.30
46037;DHT22;31769;49.304;8.428;2023-07-08T09:29:13;26.80;97.80
46037;DHT22;31769;49.304;8.428;2023-07-08T09:32:22;26.80;96.80
46037;DHT22;31769;49.304;8.428;2023-07-08T09:35:25;26.80;96.90
46037;DHT22;31769;49.304;8.428;2023-07-08T09:38:26;26.90;96.90
46037;DHT22;31769;49.304;8.428;2023-07-08T09:41:33;27.00;97.20
46037;DHT22;31769;49.304;8.428;2023-07-08T09:44:34;27.20;96.70
46037;DHT22;31769;49.304;8.428;2023-07-08T09:47:37;27.30;96.50
46037;DHT22;31769;49.304;8.428;2023-07-08T09:50:38;27.50;96.50
46037;DHT22;31769;49.304;8.428;2023-07-08T09:53:38;27.80;96.00
46037;DHT22;31769;49.304;8.428;2023-07-08T09:56:45;27.80;95.10
46037;DHT22;31769;49.304;8.428;2023-07-08T09:59:53;27.60;95.60
46037;DHT22;31769;49.304;8.428;2023-07-08T10:02:57;27.60;95.20
46037;DHT22;31769;49.304;8.428;2023-07-08T10:06:03;27.90;95.40
46037;DHT22;31769;49.304;8.428;2023-07-08T10:09:09;28.20;95.10
46037;DHT22;31769;49.304;8.428;2023-07-08T10:12:14;28.40;93.80
46037;DHT22;31769;49.304;8.428;2023-07-08T10:15:34;28.40;93.90
46037;DHT22;31769;49.304;8.428;2023-07-08T10:18:36;28.50;93.80
46037;DHT22;31769;49.304;8.428;2023-07-08T10:31:14;29.00;91.80
46037;DHT22;31769;49.304;8.428;2023-07-08T10:41:24;29.40;90.70
46037;DHT22;31769;49.304;8.428;2023-07-08T10:44:39;29.70;90.20
46037;DHT22;31769;49.304;8.428;2023-07-08T10:48:05;29.60;88.50
46037;DHT22;31769;49.304;8.428;2023-07-08T10:51:22;29.20;89.40
46037;DHT22;31769;49.304;8.428;2023-07-08T11:04:37;30.00;86.20
46037;DHT22;31769;49.304;8.428;2023-07-08T11:07:50;29.80;85.90
46037;DHT22;31769;49.304;8.428;2023-07-08T11:11:01;29.80;85.20
46037;DHT22;31769;49.304;8.428;2023-07-08T11:14:12;29.80;85.10
46037;DHT22;31769;49.304;8.428;2023-07-08T11:17:25;29.90;84.40
46037;DHT22;31769;49.304;8.428;2023-07-08T11:21:00;30.00;85.00
46037;DHT22;31769;49.304;8.428;2023-07-08T11:24:13;30.20;82.70
46037;DHT22;31769;49.304;8.428;2023-07-08T11:27:21;30.50;83.20
46037;DHT22;31769;49.304;8.428;2023-07-08T11:30:27;30.70;82.20
46037;DHT22;31769;49.304;8.428;2023-07-08T11:33:30;30.90;82.00
46037;DHT22;31769;49.304;8.428;2023-07-08T11:36:33;31.20;80.90
46037;DHT22;31769;49.304;8.428;2023-07-08T11:39:45;31.20;80.70
46037;DHT22;31769;49.304;8.428;2023-07-08T11:42:51;31.30;80.00
46037;DHT22;31769;49.304;8.428;2023-07-08T11:45:55;31.20;78.70
46037;DHT22;31769;49.304;8.428;2023-07-08T11:49:02;31.30;78.70
46037;DHT22;31769;49.304;8.428;2023-07-08T11:52:04;31.30;77.10
46037;DHT22;31769;49.304;8.428;2023-07-08T11:55:36;31.10;77.00
46037;DHT22;31769;49.304;8.428;2023-07-08T12:05:11;32.20;76.00
46037;DHT22;31769;49.304;8.428;2023-07-08T12:08:15;32.60;74.60
46037;DHT22;31769;49.304;8.428;2023-07-08T12:11:16;33.20;73.40
46037;DHT22;31769;49.304;8.428;2023-07-08T12:14:17;32.80;71.80
46037;DHT22;31769;49.304;8.428;2023-07-08T12:17:17;32.70;72.60
46037;DHT22;31769;49.304;8.428;2023-07-08T12:20:28;32.80;72.80
46037;DHT22;31769;49.304;8.428;2023-07-08T12:23:29;32.40;72.10
46037;DHT22;31769;49.304;8.428;2023-07-08T12:26:32;32.40;71.30
46037;DHT22;31769;49.304;8.428;2023-07-08T12:29:33;33.00;71.30
46037;DHT22;31769;49.304;8.428;2023-07-08T12:32:34;33.70;68.90
46037;DHT22;31769;49.304;8.428;2023-07-08T12:35:35;33.40;69.40
46037;DHT22;31769;49.304;8.428;2023-07-08T12:38:41;32.80;69.90
46037;DHT22;31769;49.304;8.428;2023-07-08T12:41:44;33.20;69.80
46037;DHT22;31769;49.304;8.428;2023-07-08T12:44:45;33.70;69.20
46037;DHT22;31769;49.304;8.428;2023-07-08T12:47:46;34.90;67.40
46037;DHT22;31769;49.304;8.428;2023-07-08T12:50:47;35.10;64.60
46037;DHT22;31769;49.304;8.428;2023-07-08T12:53:51;35.20;64.70
46037;DHT22;31769;49.304;8.428;2023-07-08T12:56:54;36.20;62.30
46037;DHT22;31769;49.304;8.428;2023-07-08T12:59:55;35.50;62.90
46037;DHT22;31769;49.304;8.428;2023-07-08T13:03:17;35.50;62.60
46037;DHT22;31769;49.304;8.428;2023-07-08T13:06:22;35.90;61.60
46037;DHT22;31769;49.304;8.428;2023-07-08T13:09:37;37.70;58.60
46037;DHT22;31769;49.304;8.428;2023-07-08T13:12:40;39.30;55.60
46037;DHT22;31769;49.304;8.428;2023-07-08T13:15:42;39.70;54.00
46037;DHT22;31769;49.304;8.428;2023-07-08T13:18:44;40.70;52.10
46037;DHT22;31769;49.304;8.428;2023-07-08T13:21:45;41.40;50.20
46037;DHT22;31769;49.304;8.428;2023-07-08T13:24:47;41.90;49.70
46037;DHT22;31769;49.304;8.428;2023-07-08T13:27:56;41.80;47.30
46037;DHT22;31769;49.304;8.428;2023-07-08T13:31:00;42.30;47.30
46037;DHT22;31769;49.304;8.428;2023-07-08T13:34:13;42.20;47.40
46037;DHT22;31769;49.304;8.428;2023-07-08T13:37:17;43.30;45.90
46037;DHT22;31769;49.304;8.428;2023-07-08T13:40:18;43.80;44.30
46037;DHT22;31769;49.304;8.428;2023-07-08T13:43:26;44.60;43.30
46037;DHT22;31769;49.304;8.428;2023-07-08T13:46:36;47.20;41.90
46037;DHT22;31769;49.304;8.428;2023-07-08T13:52:38;43.60;41.90
46037;DHT22;31769;49.304;8.428;2023-07-08T13:55:39;41.70;42.10
46037;DHT22;31769;49.304;8.428;2023-07-08T13:58:45;42.60;42.00
46037;DHT22;31769;49.304;8.428;2023-07-08T14:01:46;41.80;41.00
46037;DHT22;31769;49.304;8.428;2023-07-08T14:04:48;42.70;40.30
46037;DHT22;31769;49.304;8.428;2023-07-08T14:07:49;42.10;41.00
46037;DHT22;31769;49.304;8.428;2023-07-08T14:10:49;42.60;41.20
46037;DHT22;31769;49.304;8.428;2023-07-08T14:13:50;42.90;40.50
46037;DHT22;31769;49.304;8.428;2023-07-08T14:16:53;44.20;38.00
46037;DHT22;31769;49.304;8.428;2023-07-08T14:19:55;42.20;39.70
46037;DHT22;31769;49.304;8.428;2023-07-08T14:22:56;42.20;40.40
46037;DHT22;31769;49.304;8.428;2023-07-08T14:25:56;43.60;39.50
46037;DHT22;31769;49.304;8.428;2023-07-08T14:28:57;44.30;38.20
46037;DHT22;31769;49.304;8.428;2023-07-08T14:31:57;44.60;39.20
46037;DHT22;31769;49.304;8.428;2023-07-08T14:35:24;43.00;40.10
46037;DHT22;31769;49.304;8.428;2023-07-08T14:38:25;41.50;40.70
46037;DHT22;31769;49.304;8.428;2023-07-08T14:41:27;40.00;42.10
46037;DHT22;31769;49.304;8.428;2023-07-08T14:44:33;41.20;41.40
46037;DHT22;31769;49.304;8.428;2023-07-08T14:47:35;41.50;40.70
46037;DHT22;31769;49.304;8.428;2023-07-08T14:50:36;40.30;40.40
46037;DHT22;31769;49.304;8.428;2023-07-08T14:53:36;40.40;41.10
46037;DHT22;31769;49.304;8.428;2023-07-08T14:56:38;41.50;40.00
46037;DHT22;31769;49.304;8.428;2023-07-08T14:59:39;42.30;39.90
46037;DHT22;31769;49.304;8.428;2023-07-08T15:02:41;44.00;38.40
46037;DHT22;31769;49.304;8.428;2023-07-08T15:05:42;40.80;40.90
46037;DHT22;31769;49.304;8.428;2023-07-08T15:08:43;42.30;40.00
46037;DHT22;31769;49.304;8.428;2023-07-08T15:11:45;43.40;39.50
46037;DHT22;31769;49.304;8.428;2023-07-08T15:14:46;43.80;38.80
46037;DHT22;31769;49.304;8.428;2023-07-08T15:17:46;43.10;39.30
46037;DHT22;31769;49.304;8.428;2023-07-08T15:20:47;42.40;39.10
46037;DHT22;31769;49.304;8.428;2023-07-08T15:23:47;43.90;38.50
46037;DHT22;31769;49.304;8.428;2023-07-08T15:26:48;43.70;38.20
46037;DHT22;31769;49.304;8.428;2023-07-08T15:29:49;43.50;38.60
46037;DHT22;31769;49.304;8.428;2023-07-08T15:32:51;42.60;38.80
46037;DHT22;31769;49.304;8.428;2023-07-08T15:35:52;43.20;37.50
46037;DHT22;31769;49.304;8.428;2023-07-08T15:38:53;43.30;37.20
46037;DHT22;31769;49.304;8.428;2023-07-08T15:41:54;43.80;36.40
46037;DHT22;31769;49.304;8.428;2023-07-08T15:44:55;44.30;35.90
46037;DHT22;31769;49.304;8.428;2023-07-08T15:47:56;44.80;34.80
46037;DHT22;31769;49.304;8.428;2023-07-08T15:50:56;44.80;34.20
46037;DHT22;31769;49.304;8.428;2023-07-08T15:53:57;44.60;34.50
46037;DHT22;31769;49.304;8.428;2023-07-08T15:56:57;44.70;34.60
46037;DHT22;31769;49.304;8.428;2023-07-08T15:59:58;43.00;34.90
46037;DHT22;31769;49.304;8.428;2023-07-08T16:03:06;42.40;34.80
46037;DHT22;31769;49.304;8.428;2023-07-08T16:06:08;42.40;34.80
46037;DHT22;31769;49.304;8.428;2023-07-08T16:09:09;41.40;35.20
46037;DHT22;31769;49.304;8.428;2023-07-08T16:12:12;41.50;35.30
46037;DHT22;31769;49.304;8.428;2023-07-08T16:15:16;42.80;35.70
46037;DHT22;31769;49.304;8.428;2023-07-08T16:18:17;41.60;36.00
46037;DHT22;31769;49.304;8.428;2023-07-08T16:21:18;42.40;36.20
46037;DHT22;31769;49.304;8.428;2023-07-08T16:24:19;43.30;36.20
46037;DHT22;31769;49.304;8.428;2023-07-08T16:27:19;41.40;37.60
46037;DHT22;31769;49.304;8.428;2023-07-08T16:30:21;41.60;37.30
46037;DHT22;31769;49.304;8.428;2023-07-08T16:33:23;42.60;37.20
46037;DHT22;31769;49.304;8.428;2023-07-08T16:36:25;41.10;38.30
46037;DHT22;31769;49.304;8.428;2023-07-08T16:39:26;39.90;39.50
46037;DHT22;31769;49.304;8.428;2023-07-08T16:42:27;38.20;41.10
46037;DHT22;31769;49.304;8.428;2023-07-08T16:45:27;38.60;41.10
46037;DHT22;31769;49.304;8.428;2023-07-08T16:48:28;38.70;41.00
46037;DHT22;31769;49.304;8.428;2023-07-08T16:51:29;38.90;40.80
46037;DHT22;31769;49.304;8.428;2023-07-08T16:54:30;39.10;41.30
46037;DHT22;31769;49.304;8.428;2023-07-08T16:57:30;39.10;40.80
46037;DHT22;31769;49.304;8.428;2023-07-08T17:00:31;39.90;40.10
46037;DHT22;31769;49.304;8.428;2023-07-08T17:03:33;40.00;40.00
46037;DHT22;31769;49.304;8.428;2023-07-08T17:06:34;39.10;41.00
46037;DHT22;31769;49.304;8.428;2023-07-08T17:09:35;38.70;41.70
46037;DHT22;31769;49.304;8.428;2023-07-08T17:12:35;38.40;42.20
46037;DHT22;31769;49.304;8.428;2023-07-08T17:15:37;37.90;42.30
46037;DHT22;31769;49.304;8.428;2023-07-08T17:18:38;37.60;43.50
46037;DHT22;31769;49.304;8.428;2023-07-08T17:21:39;37.50;43.40
46037;DHT22;31769;49.304;8.428;2023-07-08T17:24:40;37.10;44.10
46037;DHT22;31769;49.304;8.428;2023-07-08T17:27:41;36.50;44.60
46037;DHT22;31769;49.304;8.428;2023-07-08T17:30:44;36.80;44.60
46037;DHT22;31769;49.304;8.428;2023-07-08T17:33:48;36.70;45.20
46037;DHT22;31769;49.304;8.428;2023-07-08T17:36:51;36.60;44.40
46037;DHT22;31769;49.304;8.428;2023-07-08T17:39:52;36.40;44.70
46037;DHT22;31769;49.304;8.428;2023-07-08T17:42:54;36.30;44.30
46037;DHT22;31769;49.304;8.428;2023-07-08T17:45:55;35.90;45.20
46037;DHT22;31769;49.304;8.428;2023-07-08T17:48:58;35.80;46.20
46037;DHT22;31769;49.304;8.428;2023-07-08T17:51:58;35.60;46.40
46037;DHT22;31769;49.304;8.428;2023-07-08T17:54:59;35.60;46.80
46037;DHT22;31769;49.304;8.428;2023-07-08T17:58:01;35.30;47.20
46037;DHT22;31769;49.304;8.428;2023-07-08T18:01:08;34.90;48.10
46037;DHT22;31769;49.304;8.428;2023-07-08T18:04:09;34.50;48.20
46037;DHT22;31769;49.304;8.428;2023-07-08T18:07:09;34.30;48.80
46037;DHT22;31769;49.304;8.428;2023-07-08T18:10:10;33.90;49.30
46037;DHT22;31769;49.304;8.428;2023-07-08T18:13:19;33.60;48.80
46037;DHT22;31769;49.304;8.428;2023-07-08T18:16:22;33.10;49.50
46037;DHT22;31769;49.304;8.428;2023-07-08T18:19:27;32.20;51.50
46037;DHT22;31769;49.304;8.428;2023-07-08T18:22:31;31.60;53.40
46037;DHT22;31769;49.304;8.428;2023-07-08T18:25:32;31.10;54.90
46037;DHT22;31769;49.304;8.428;2023-07-08T18:28:33;30.60;57.10
46037;DHT22;31769;49.304;8.428;2023-07-08T18:31:34;30.10;59.50
46037;DHT22;31769;49.304;8.428;2023-07-08T18:34:36;29.80;60.90
46037;DHT22;31769;49.304;8.428;2023-07-08T18:37:36;29.50;61.60
46037;DHT22;31769;49.304;8.428;2023-07-08T18:40:39;29.50;62.90
46037;DHT22;31769;49.304;8.428;2023-07-08T18:43:42;29.50;64.20
46037;DHT22;31769;49.304;8.428;2023-07-08T18:46:43;29.50;64.50
46037;DHT22;31769;49.304;8.428;2023-07-08T18:49:43;29.40;65.70
46037;DHT22;31769;49.304;8.428;2023-07-08T18:52:45;29.20;66.70
46037;DHT22;31769;49.304;8.428;2023-07-08T18:55:46;29.10;67.60
46037;DHT22;31769;49.304;8.428;2023-07-08T18:58:47;29.10;68.30
46037;DHT22;31769;49.304;8.428;2023-07-08T19:01:48;28.90;68.60
46037;DHT22;31769;49.304;8.428;2023-07-08T19:04:49;28.80;69.00
46037;DHT22;31769;49.304;8.428;2023-07-08T19:07:51;28.70;70.00
46037;DHT22;31769;49.304;8.428;2023-07-08T19:10:52;28.50;70.60
46037;DHT22;31769;49.304;8.428;2023-07-08T19:13:56;28.40;71.10
46037;DHT22;31769;49.304;8.428;2023-07-08T19:16:56;28.30;71.40
46037;DHT22;31769;49.304;8.428;2023-07-08T19:19:57;28.10;72.20
46037;DHT22;31769;49.304;8.428;2023-07-08T19:22:58;27.90;72.80
46037;DHT22;31769;49.304;8.428;2023-07-08T19:25:58;27.80;73.70
46037;DHT22;31769;49.304;8.428;2023-07-08T19:28:59;27.70;75.00
46037;DHT22;31769;49.304;8.428;2023-07-08T19:32:00;27.70;76.20
46037;DHT22;31769;49.304;8.428;2023-07-08T19:35:00;27.50;77.70
46037;DHT22;31769;49.304;8.428;2023-07-08T19:38:01;27.40;77.90
46037;DHT22;31769;49.304;8.428;2023-07-08T19:41:02;27.50;78.70
46037;DHT22;31769;49.304;8.428;2023-07-08T19:44:17;27.30;79.50
46037;DHT22;31769;49.304;8.428;2023-07-08T19:47:19;27.40;80.30
46037;DHT22;31769;49.304;8.428;2023-07-08T19:50:23;27.30;81.90
46037;DHT22;31769;49.304;8.428;2023-07-08T19:53:24;27.20;82.10
46037;DHT22;31769;49.304;8.428;2023-07-08T19:56:25;27.20;82.70
46037;DHT22;31769;49.304;8.428;2023-07-08T19:59:27;27.00;83.30
46037;DHT22;31769;49.304;8.428;2023-07-08T20:02:30;26.80;84.70